createdAt,value
2023-01-20T00:00:18.207Z,10.37
2023-01-20T00:02:48.134Z,8.40
2023-01-20T00:05:25.480Z,8.37
2023-01-20T00:07:52.883Z,10.10
2023-01-20T00:10:20.309Z,9.60
2023-01-20T00:12:47.659Z,10.03
2023-01-20T00:15:22.017Z,10.37
2023-01-20T00:17:49.465Z,10.63
2023-01-20T00:20:17.145Z,8.53
2023-01-20T00:22:45.921Z,10.23
2023-01-20T00:25:13.581Z,9.70
2023-01-20T00:27:45.502Z,10.97
2023-01-20T00:32:44.878Z,8.60
2023-01-20T00:37:43.803Z,8.80
2023-01-20T00:40:17.400Z,6.20
2023-01-20T00:42:58.317Z,8.27
2023-01-20T00:45:28.766Z,9.07
2023-01-20T00:48:07.289Z,8.37
2023-01-20T00:50:34.751Z,11.10
2023-01-20T00:53:03.013Z,9.63
2023-01-20T00:55:30.443Z,7.17
2023-01-20T00:57:57.774Z,7.40
2023-01-20T01:00:34.679Z,5.97
2023-01-20T01:03:04.179Z,7.40
2023-01-20T01:05:32.178Z,7.17
2023-01-20T01:07:59.565Z,9.20
2023-01-20T01:10:34.694Z,6.20
2023-01-20T01:13:08.175Z,7.63
2023-01-20T01:15:42.284Z,7.73
2023-01-20T01:18:10.141Z,7.50
2023-01-20T01:20:40.749Z,8.30
2023-01-20T01:23:15.671Z,7.03
2023-01-20T01:25:45.568Z,7.43
2023-01-20T01:28:15.217Z,7.17
2023-01-20T01:30:42.611Z,7.07
2023-01-20T01:33:13.239Z,6.00
2023-01-20T01:35:41.662Z,7.53
2023-01-20T01:38:13.377Z,6.30
2023-01-20T01:43:29.066Z,6.30
2023-01-20T01:46:00.226Z,8.80
2023-01-20T01:48:46.948Z,7.55
2023-01-20T01:51:25.939Z,7.30
2023-01-20T01:54:32.985Z,6.27
2023-01-20T01:57:08.929Z,6.80
2023-01-20T01:59:47.081Z,7.67
2023-01-20T02:02:20.362Z,10.37
2023-01-20T02:04:56.688Z,8.13
2023-01-20T02:07:29.068Z,9.53
2023-01-20T02:10:04.888Z,8.77
2023-01-20T02:12:38.115Z,8.07
2023-01-20T02:15:29.216Z,9.17
2023-01-20T02:18:23.902Z,6.67
2023-01-20T02:21:13.286Z,14.30
2023-01-20T02:24:04.251Z,6.87
2023-01-20T02:26:53.432Z,6.83
2023-01-20T02:30:00.019Z,6.17
2023-01-20T02:33:07.320Z,6.97
2023-01-20T02:36:10.338Z,13.57
2023-01-20T02:39:27.684Z,7.40
2023-01-20T02:42:14.073Z,7.20
2023-01-20T02:45:01.857Z,8.03
2023-01-20T02:47:51.621Z,6.90
2023-01-20T02:50:45.808Z,8.20
2023-01-20T02:53:17.822Z,5.90
2023-01-20T02:58:50.862Z,7.77
2023-01-20T03:01:25.702Z,7.57
2023-01-20T03:03:58.686Z,8.60
2023-01-20T03:06:35.271Z,7.50
2023-01-20T03:09:07.253Z,9.23
2023-01-20T03:11:50.842Z,7.90
2023-01-20T03:14:20.232Z,8.03
2023-01-20T03:16:51.067Z,7.97
2023-01-20T03:19:23.430Z,7.20
2023-01-20T03:24:40.058Z,7.78
2023-01-20T03:27:28.896Z,8.90
2023-01-20T03:30:28.161Z,8.37
2023-01-20T03:33:37.684Z,9.60
2023-01-20T03:36:13.580Z,8.47
2023-01-20T03:38:47.391Z,8.57
2023-01-20T03:41:20.890Z,9.37
2023-01-20T03:43:58.246Z,8.40
2023-01-20T03:47:05.797Z,8.73
2023-01-20T03:49:58.411Z,11.53
2023-01-20T03:52:46.525Z,7.83
2023-01-20T03:55:50.168Z,9.00
2023-01-20T03:58:31.478Z,12.38
2023-01-20T04:01:36.557Z,8.50
2023-01-20T04:04:27.713Z,9.40
2023-01-20T04:07:08.594Z,8.43
2023-01-20T04:09:48.067Z,9.30
2023-01-20T04:12:15.803Z,10.77
2023-01-20T04:14:48.963Z,9.70
2023-01-20T04:17:16.617Z,10.10
2023-01-20T04:19:46.375Z,9.27
2023-01-20T04:22:16.742Z,11.67
2023-01-20T04:25:04.091Z,11.30
2023-01-20T04:27:31.642Z,16.97
2023-01-20T04:36:00.977Z,11.47
2023-01-20T04:38:40.066Z,9.80
2023-01-20T04:41:31.248Z,11.43
2023-01-20T04:44:04.492Z,10.40
2023-01-20T04:46:51.397Z,11.33
2023-01-20T04:49:18.807Z,11.00
2023-01-20T04:51:48.404Z,9.57
2023-01-20T04:54:15.744Z,11.63
2023-01-20T04:56:45.428Z,9.53
2023-01-20T04:59:14.811Z,10.63
2023-01-20T05:01:46.553Z,10.13
2023-01-20T05:06:53.424Z,8.40
2023-01-20T05:10:04.127Z,13.10
2023-01-20T05:12:52.775Z,9.10
2023-01-20T05:15:50.138Z,10.07
2023-01-20T05:18:32.130Z,11.10
2023-01-20T05:23:32.565Z,11.07
2023-01-20T05:26:05.349Z,10.80
2023-01-20T05:28:50.942Z,10.57
2023-01-20T05:35:40.571Z,9.07
2023-01-20T05:41:46.234Z,10.63
2023-01-20T05:44:31.221Z,10.53
2023-01-20T05:50:30.948Z,10.90
2023-01-20T05:53:00.448Z,9.98
2023-01-20T05:55:52.291Z,11.00
2023-01-20T05:58:32.981Z,11.50
2023-01-20T06:04:07.475Z,13.53
2023-01-20T06:07:09.241Z,9.90
2023-01-20T06:10:07.653Z,12.97
2023-01-20T06:13:09.150Z,12.73
2023-01-20T06:17:56.700Z,10.75
2023-01-20T06:25:01.957Z,12.50
2023-01-20T06:27:43.155Z,10.37
2023-01-20T06:30:14.537Z,12.82
2023-01-20T06:33:21.095Z,11.75
2023-01-20T06:36:14.025Z,11.77
2023-01-20T06:38:47.430Z,10.57
2023-01-20T06:41:42.929Z,12.73
2023-01-20T06:44:16.272Z,12.50
2023-01-20T06:47:31.664Z,12.53
2023-01-20T06:50:17.225Z,12.13
2023-01-20T06:55:57.776Z,11.07
2023-01-20T07:02:28.653Z,11.30
2023-01-20T07:05:11.929Z,11.13
2023-01-20T07:28:21.284Z,14.60
2023-01-20T07:34:50.159Z,13.83
2023-01-20T07:48:19.128Z,13.50
2023-01-20T07:51:23.517Z,10.90
2023-01-20T07:54:33.503Z,26.10
2023-01-20T07:57:48.259Z,97.27
2023-01-20T08:04:48.401Z,33.20
2023-01-20T08:13:30.290Z,18.00
2023-01-20T08:16:26.508Z,17.00
2023-01-20T08:19:27.060Z,18.80
2023-01-20T08:25:38.092Z,14.83
2023-01-20T08:28:14.932Z,16.13
2023-01-20T08:30:47.548Z,14.90
2023-01-20T08:36:50.321Z,13.60
2023-01-20T08:39:30.073Z,14.67
2023-01-20T08:42:04.450Z,17.83
2023-01-20T08:44:56.681Z,16.87
2023-01-20T08:47:46.284Z,13.40
2023-01-20T08:50:23.693Z,13.97
2023-01-20T08:52:51.527Z,15.33
2023-01-20T08:55:23.931Z,14.77
2023-01-20T08:58:03.680Z,13.20
2023-01-20T09:01:09.008Z,13.10
2023-01-20T09:03:36.868Z,13.23
2023-01-20T09:06:06.247Z,14.00
2023-01-20T09:08:34.040Z,13.10
2023-01-20T09:11:21.523Z,13.13
2023-01-20T09:13:57.831Z,16.80
2023-01-20T09:16:25.304Z,12.90
2023-01-20T09:18:52.963Z,14.37
2023-01-20T09:21:25.448Z,14.40
2023-01-20T09:23:58.997Z,13.80
2023-01-20T09:26:35.959Z,17.53
2023-01-20T09:29:21.982Z,15.77
2023-01-20T09:32:04.366Z,13.87
2023-01-20T09:34:40.595Z,14.77
2023-01-20T09:38:07.080Z,18.73
2023-01-20T09:41:20.094Z,15.57
2023-01-20T09:44:25.894Z,15.13
2023-01-20T09:47:39.159Z,16.27
2023-01-20T09:50:48.875Z,17.10
2023-01-20T09:53:22.440Z,18.00
2023-01-20T09:56:17.514Z,16.37
2023-01-20T09:59:33.507Z,20.27
2023-01-20T10:02:13.926Z,18.70
2023-01-20T10:04:51.926Z,17.83
2023-01-20T10:07:55.769Z,18.53
2023-01-20T10:10:43.003Z,19.20
2023-01-20T10:13:39.649Z,16.53
2023-01-20T10:16:17.071Z,17.17
2023-01-20T10:18:59.855Z,16.70
2023-01-20T10:21:39.477Z,18.33
2023-01-20T10:24:09.971Z,18.93
2023-01-20T10:27:25.659Z,18.53
2023-01-20T10:29:56.984Z,17.43
2023-01-20T10:32:44.280Z,19.35
2023-01-20T10:35:27.608Z,18.07
2023-01-20T10:38:06.358Z,18.53
2023-01-20T10:41:18.659Z,16.93
2023-01-20T10:44:13.787Z,16.90
2023-01-20T10:47:22.575Z,18.40
2023-01-20T10:50:09.792Z,19.53
2023-01-20T10:53:15.573Z,16.60
2023-01-20T10:56:25.081Z,19.00
2023-01-20T10:58:52.839Z,26.40
2023-01-20T11:01:22.899Z,22.97
2023-01-20T11:03:52.986Z,28.70
2023-01-20T11:06:23.574Z,21.63
2023-01-20T11:08:51.248Z,23.10
2023-01-20T11:11:25.541Z,23.80
2023-01-20T11:13:54.186Z,23.97
2023-01-20T11:16:39.782Z,19.87
2023-01-20T11:19:16.603Z,19.30
2023-01-20T11:21:44.780Z,19.57
2023-01-20T11:24:34.247Z,19.90
2023-01-20T11:27:22.494Z,20.80
2023-01-20T11:30:16.823Z,21.50
2023-01-20T11:32:44.814Z,19.67
2023-01-20T11:35:25.177Z,22.33
2023-01-20T11:37:54.748Z,20.60
2023-01-20T11:40:27.115Z,21.33
2023-01-20T11:42:58.191Z,23.33
2023-01-20T11:45:37.960Z,19.95
2023-01-20T11:48:10.459Z,21.97
2023-01-20T11:50:50.198Z,22.63
2023-01-20T11:53:24.549Z,20.70
2023-01-20T11:56:23.228Z,19.33
2023-01-20T11:59:13.847Z,19.47
2023-01-20T12:02:05.837Z,18.90
2023-01-20T12:05:13.103Z,18.27
2023-01-20T12:08:11.092Z,17.90
2023-01-20T12:10:40.321Z,17.77
2023-01-20T12:13:34.733Z,19.20
2023-01-20T12:16:03.678Z,17.47
2023-01-20T12:19:02.055Z,19.27
2023-01-20T12:21:43.248Z,16.87
2023-01-20T12:24:56.179Z,16.93
2023-01-20T12:27:29.444Z,22.77
2023-01-20T12:30:07.211Z,19.30
2023-01-20T12:32:37.091Z,16.90
2023-01-20T12:35:13.085Z,18.63
2023-01-20T12:37:57.376Z,17.10
2023-01-20T12:40:55.869Z,18.90
2023-01-20T12:43:31.487Z,24.07
2023-01-20T12:46:26.370Z,21.63
2023-01-20T12:49:32.932Z,20.97
2023-01-20T12:52:35.276Z,24.17
2023-01-20T12:55:23.801Z,22.43
2023-01-20T12:58:21.704Z,22.17
2023-01-20T13:00:53.447Z,22.37
2023-01-20T13:06:23.352Z,20.63
2023-01-20T13:09:05.894Z,22.20
2023-01-20T13:11:39.557Z,21.77
2023-01-20T13:14:21.735Z,21.00
2023-01-20T13:17:19.119Z,21.83
2023-01-20T13:19:49.389Z,21.07
2023-01-20T13:22:24.071Z,20.17
2023-01-20T13:25:10.170Z,21.27
2023-01-20T13:27:41.896Z,19.57
2023-01-20T13:33:08.463Z,21.93
2023-01-20T13:36:13.493Z,22.40
2023-01-20T13:38:41.144Z,21.77
2023-01-20T13:41:54.549Z,22.83
2023-01-20T13:44:45.509Z,24.33
2023-01-20T13:47:51.614Z,22.87
2023-01-20T13:50:32.921Z,20.80
2023-01-20T13:53:21.811Z,20.85
2023-01-20T13:55:50.936Z,23.13
2023-01-20T13:58:35.029Z,21.60
2023-01-20T14:01:08.592Z,20.57
2023-01-20T14:03:42.268Z,23.23
2023-01-20T14:06:15.392Z,20.40
2023-01-20T14:08:48.392Z,21.37
2023-01-20T14:11:23.038Z,21.40
2023-01-20T14:14:07.124Z,21.27
2023-01-20T14:16:45.086Z,21.70
2023-01-20T14:19:32.650Z,21.67
2023-01-20T14:22:04.662Z,20.57
2023-01-20T14:24:44.818Z,21.67
2023-01-20T14:27:26.073Z,18.67
2023-01-20T14:30:15.736Z,21.70
2023-01-20T14:32:48.181Z,18.30
2023-01-20T14:35:32.686Z,21.67
2023-01-20T14:38:00.537Z,19.87
2023-01-20T14:40:31.697Z,21.47
2023-01-20T14:43:21.104Z,20.85
2023-01-20T14:45:58.190Z,21.30
2023-01-20T14:48:36.213Z,21.83
2023-01-20T14:51:07.115Z,19.77
2023-01-20T14:53:36.887Z,21.05
2023-01-20T14:56:09.620Z,21.33
2023-01-20T14:58:48.965Z,21.20
2023-01-20T15:01:27.180Z,20.37
2023-01-20T15:03:59.807Z,20.70
2023-01-20T15:06:35.266Z,21.30
2023-01-20T15:09:06.903Z,21.20
2023-01-20T15:11:38.325Z,21.63
2023-01-20T15:14:11.035Z,23.90
2023-01-20T15:16:47.549Z,21.93
2023-01-20T15:19:19.790Z,21.23
2023-01-20T15:21:57.297Z,20.30
2023-01-20T15:24:32.982Z,20.17
2023-01-20T15:27:02.184Z,20.93
2023-01-20T15:29:41.780Z,20.67
2023-01-20T15:32:14.558Z,21.23
2023-01-20T15:34:44.706Z,19.87
2023-01-20T15:37:20.879Z,20.97
2023-01-20T15:39:50.608Z,19.73
2023-01-20T15:42:20.394Z,19.73
2023-01-20T15:44:54.489Z,29.07
2023-01-20T15:47:31.086Z,25.43
2023-01-20T15:49:59.302Z,22.63
2023-01-20T15:52:26.768Z,22.00
2023-01-20T15:54:58.651Z,23.47
2023-01-20T15:57:29.009Z,25.70
2023-01-20T15:59:59.319Z,23.30
2023-01-20T16:02:31.039Z,24.90
2023-01-20T16:07:30.282Z,22.33
2023-01-20T16:10:03.965Z,24.03
2023-01-20T16:12:53.859Z,21.50
2023-01-20T16:15:21.386Z,22.17
2023-01-20T16:17:54.060Z,22.47
2023-01-20T16:20:30.777Z,25.00
2023-01-20T16:22:58.526Z,25.87
2023-01-20T16:25:28.992Z,24.93
2023-01-20T16:27:57.602Z,25.53
2023-01-20T16:30:31.962Z,25.97
2023-01-20T16:32:59.417Z,30.80
2023-01-20T16:35:27.283Z,25.97
2023-01-20T16:37:54.915Z,24.57
2023-01-20T16:40:28.072Z,22.33
2023-01-20T16:43:01.657Z,22.30
2023-01-20T16:45:30.026Z,24.13
2023-01-20T16:47:57.621Z,22.27
2023-01-20T16:50:27.929Z,23.00
2023-01-20T16:52:55.316Z,23.10
2023-01-20T16:55:24.023Z,22.60
2023-01-20T16:57:56.254Z,22.60
2023-01-20T17:00:26.109Z,22.60
2023-01-20T17:02:54.190Z,23.73
2023-01-20T17:05:25.903Z,23.00
2023-01-20T17:10:29.982Z,25.30
2023-01-20T17:12:57.338Z,25.17
2023-01-20T17:15:28.796Z,26.80
2023-01-20T17:17:58.305Z,23.13
2023-01-20T17:20:32.317Z,22.23
2023-01-20T17:22:59.973Z,22.93
2023-01-20T17:25:31.533Z,23.57
2023-01-20T17:27:58.844Z,23.25
2023-01-20T17:30:26.676Z,23.03
2023-01-20T17:32:54.386Z,24.07
2023-01-20T17:35:21.702Z,21.33
2023-01-20T17:37:48.962Z,23.87
2023-01-20T17:40:21.684Z,24.67
2023-01-20T17:42:54.776Z,22.03
2023-01-20T17:45:22.124Z,23.83
2023-01-20T17:47:54.835Z,23.37
2023-01-20T17:50:24.690Z,23.30
2023-01-20T17:52:56.884Z,21.73
2023-01-20T17:55:26.763Z,22.40
2023-01-20T17:57:56.366Z,22.53
2023-01-20T18:00:30.372Z,23.37
2023-01-20T18:02:57.794Z,20.13
2023-01-20T18:05:27.148Z,21.67
2023-01-20T18:07:54.530Z,22.87
2023-01-20T18:10:21.836Z,21.93
2023-01-20T18:12:49.153Z,20.83
2023-01-20T18:15:16.578Z,23.53
2023-01-20T18:17:46.905Z,20.70
2023-01-20T18:20:15.719Z,24.40
2023-01-20T18:22:49.801Z,21.20
2023-01-20T18:25:18.269Z,20.60
2023-01-20T18:27:47.904Z,22.93
2023-01-20T18:30:15.684Z,21.90
2023-01-20T18:32:46.274Z,23.83
2023-01-20T18:35:15.949Z,23.17
2023-01-20T18:37:43.234Z,23.67
2023-01-20T18:40:16.189Z,23.30
2023-01-20T18:42:45.096Z,22.80
2023-01-20T18:45:19.394Z,22.87
2023-01-20T18:47:51.000Z,21.03
2023-01-20T18:50:18.606Z,23.08
2023-01-20T18:52:45.869Z,23.37
2023-01-20T18:55:17.844Z,21.23
2023-01-20T18:57:49.543Z,22.67
2023-01-20T19:00:21.766Z,22.10
2023-01-20T19:02:54.862Z,19.67
2023-01-20T19:05:22.622Z,20.47
2023-01-20T19:07:50.744Z,21.20
2023-01-20T19:10:21.013Z,19.60
2023-01-20T19:12:48.611Z,20.57
2023-01-20T19:15:16.028Z,18.07
2023-01-20T19:17:43.433Z,20.27
2023-01-20T19:20:15.693Z,18.77
2023-01-20T19:22:43.124Z,19.20
2023-01-20T19:25:11.031Z,19.40
2023-01-20T19:27:40.402Z,20.07
2023-01-20T19:30:10.753Z,22.03
2023-01-20T19:32:42.204Z,20.60
2023-01-20T19:35:09.824Z,20.73
2023-01-20T19:37:38.477Z,20.17
2023-01-20T19:40:06.071Z,21.20
2023-01-20T19:42:35.672Z,20.87
2023-01-20T19:45:08.142Z,21.67
2023-01-20T19:47:35.706Z,19.53
2023-01-20T19:50:03.016Z,20.73
2023-01-20T19:52:30.347Z,21.77
2023-01-20T19:54:59.874Z,21.57
2023-01-20T19:57:27.408Z,23.03
2023-01-20T19:59:57.349Z,21.80
2023-01-20T20:02:25.014Z,22.90
2023-01-20T20:04:54.517Z,23.03
2023-01-20T20:07:21.760Z,23.03
2023-01-20T20:09:49.078Z,20.80
2023-01-20T20:12:18.810Z,23.53
2023-01-20T20:14:46.280Z,23.43
2023-01-20T20:17:15.683Z,20.97
2023-01-20T20:19:42.951Z,21.97
2023-01-20T20:22:10.241Z,22.27
2023-01-20T20:24:37.554Z,22.50
2023-01-20T20:27:04.948Z,22.10
2023-01-20T20:29:32.225Z,23.10
2023-01-20T20:31:59.666Z,25.33
2023-01-20T20:34:26.970Z,23.67
2023-01-20T20:36:54.736Z,24.63
2023-01-20T20:39:22.217Z,23.53
2023-01-20T20:41:49.556Z,24.07
2023-01-20T20:44:17.057Z,24.10
2023-01-20T20:46:46.618Z,24.40
2023-01-20T20:49:17.356Z,25.07
2023-01-20T20:51:47.796Z,26.97
2023-01-20T20:54:17.001Z,26.17
2023-01-20T20:56:44.931Z,24.93
2023-01-20T20:59:12.271Z,23.13
2023-01-20T21:01:43.032Z,24.23
2023-01-20T21:04:11.608Z,24.07
2023-01-20T21:06:41.360Z,23.97
2023-01-20T21:09:09.091Z,25.07
2023-01-20T21:11:38.301Z,23.50
2023-01-20T21:14:06.171Z,27.70
2023-01-20T21:16:34.148Z,25.97
2023-01-20T21:19:05.148Z,26.70
2023-01-20T21:21:32.540Z,28.23
2023-01-20T21:24:02.677Z,28.50
2023-01-20T21:26:32.444Z,30.73
2023-01-20T21:29:03.803Z,29.17
2023-01-20T21:31:31.927Z,30.38
2023-01-20T21:34:04.641Z,30.47
2023-01-20T21:36:36.889Z,29.27
2023-01-20T21:39:10.607Z,29.07
2023-01-20T21:41:37.976Z,27.17
2023-01-20T21:44:23.762Z,31.87
2023-01-20T21:46:53.462Z,30.90
2023-01-20T21:49:39.623Z,29.20
2023-01-20T21:52:38.518Z,30.93
2023-01-20T21:55:07.348Z,30.73
2023-01-20T21:57:39.620Z,30.63
2023-01-20T22:00:08.772Z,34.10
2023-01-20T22:02:39.411Z,31.67
2023-01-20T22:05:09.620Z,32.87
2023-01-20T22:07:37.289Z,33.27
2023-01-20T22:10:05.797Z,33.03
2023-01-20T22:12:34.696Z,32.47
2023-01-20T22:15:07.501Z,32.87
2023-01-20T22:17:41.449Z,31.87
2023-01-20T22:20:12.862Z,32.37
2023-01-20T22:22:40.158Z,35.05
2023-01-20T22:25:07.681Z,33.00
2023-01-20T22:27:37.183Z,34.17
2023-01-20T22:30:07.557Z,35.23
2023-01-20T22:32:36.921Z,36.53
2023-01-20T22:35:04.433Z,36.37
2023-01-20T22:37:34.266Z,33.23
2023-01-20T22:40:02.090Z,31.87
2023-01-20T22:42:29.347Z,33.30
2023-01-20T22:44:58.899Z,33.33
2023-01-20T22:47:26.433Z,34.00
2023-01-20T22:49:56.934Z,33.63
2023-01-20T22:52:24.280Z,31.40
2023-01-20T22:54:51.627Z,32.13
2023-01-20T22:57:21.017Z,35.63
2023-01-20T22:59:50.635Z,32.67
2023-01-20T23:02:18.036Z,33.20
2023-01-20T23:04:52.427Z,33.40
2023-01-20T23:07:22.191Z,33.27
2023-01-20T23:09:50.613Z,33.60
2023-01-20T23:12:17.869Z,33.50
2023-01-20T23:15:00.485Z,32.57
2023-01-20T23:17:29.640Z,33.57
2023-01-20T23:19:58.155Z,33.33
2023-01-20T23:22:25.574Z,34.33
2023-01-20T23:24:52.869Z,31.17
2023-01-20T23:27:20.182Z,33.20
2023-01-20T23:29:49.912Z,32.73
2023-01-20T23:32:17.131Z,33.47
2023-01-20T23:34:46.518Z,32.07
2023-01-20T23:37:16.113Z,32.67
2023-01-20T23:39:46.323Z,30.80
2023-01-20T23:42:13.640Z,32.63
2023-01-20T23:44:43.453Z,33.70
2023-01-20T23:47:10.697Z,30.47
2023-01-20T23:49:38.104Z,30.93
2023-01-20T23:52:05.864Z,29.50
2023-01-20T23:54:37.461Z,33.63
2023-01-20T23:57:04.858Z,29.75
2023-01-20T23:59:38.027Z,32.33
